createdAt,value
2018-04-28T03:01:07.904Z,86.68
2018-04-28T03:02:08.970Z,87.30
2018-04-28T03:03:07.348Z,86.68
2018-04-28T03:04:07.497Z,85.83
2018-04-28T03:05:07.642Z,86.02
2018-04-28T03:06:07.802Z,85.64
2018-04-28T03:07:07.958Z,85.74
2018-04-28T03:08:08.066Z,86.21
2018-04-28T03:09:08.227Z,85.93
2018-04-28T03:10:08.406Z,86.11
2018-04-28T03:11:08.588Z,86.11
2018-04-28T03:12:08.753Z,86.30
2018-04-28T03:13:08.870Z,87.06
2018-04-28T03:14:09.070Z,86.68
2018-04-28T03:15:09.172Z,87.35
2018-04-28T03:16:09.330Z,87.06
2018-04-28T03:17:09.543Z,86.87
2018-04-28T03:18:09.670Z,86.68
2018-04-28T03:19:09.889Z,86.68
2018-04-28T03:20:10.040Z,86.87
2018-04-28T03:21:10.294Z,86.87
2018-04-28T03:22:10.369Z,86.11
2018-04-28T03:23:10.515Z,85.93
2018-04-28T03:24:10.786Z,86.40
2018-04-28T03:25:10.856Z,86.30
2018-04-28T03:26:10.979Z,86.87
2018-04-28T03:27:11.165Z,86.87
2018-04-28T03:28:11.309Z,86.87
2018-04-28T03:29:11.481Z,87.82
2018-04-28T03:30:11.661Z,87.92
2018-04-28T03:31:11.859Z,88.20
2018-04-28T03:32:12.798Z,88.77
2018-04-28T03:33:12.190Z,89.43
2018-04-28T03:34:12.290Z,88.81
2018-04-28T03:35:12.513Z,88.39
2018-04-28T03:36:12.678Z,87.63
2018-04-28T03:37:12.802Z,87.16
2018-04-28T03:38:12.971Z,86.87
2018-04-28T03:39:13.200Z,86.59
2018-04-28T03:40:13.388Z,86.78
2018-04-28T03:41:13.513Z,86.59
2018-04-28T03:42:13.731Z,86.49
2018-04-28T03:43:13.871Z,86.78
2018-04-28T03:44:13.964Z,87.54
2018-04-28T03:45:14.177Z,86.78
2018-04-28T03:46:14.381Z,86.11
2018-04-28T03:47:14.512Z,86.02
2018-04-28T03:48:14.649Z,86.59
2018-04-28T03:49:14.851Z,86.59
2018-04-28T03:50:14.970Z,86.87
2018-04-28T03:51:15.154Z,86.68
2018-04-28T03:52:15.385Z,86.59
2018-04-28T03:53:15.436Z,86.87
2018-04-28T03:54:15.615Z,87.25
2018-04-28T03:55:15.822Z,87.25
2018-04-28T03:56:15.967Z,86.68
2018-04-28T03:57:16.148Z,86.78
2018-04-28T03:58:16.357Z,86.30
2018-04-28T03:59:16.444Z,86.40
2018-04-28T04:00:16.908Z,86.30
2018-04-28T04:01:16.825Z,86.02
2018-04-28T04:02:16.978Z,86.21
2018-04-28T04:03:17.176Z,85.74
2018-04-28T04:04:17.351Z,86.02
2018-04-28T04:05:17.472Z,85.83
2018-04-28T04:06:17.628Z,86.59
2018-04-28T04:07:17.823Z,86.40
2018-04-28T04:08:17.932Z,86.30
2018-04-28T04:09:18.032Z,86.02
2018-04-28T04:10:18.323Z,86.97
2018-04-28T04:11:18.409Z,86.59
2018-04-28T04:12:18.587Z,86.97
2018-04-28T04:13:18.810Z,86.78
2018-04-28T04:14:18.904Z,87.25
2018-04-28T04:15:19.060Z,87.25
2018-04-28T04:16:19.225Z,87.35
2018-04-28T04:17:19.411Z,87.35
2018-04-28T04:18:19.565Z,87.45
2018-04-28T04:19:19.729Z,87.82
2018-04-28T04:20:19.886Z,87.73
2018-04-28T04:21:20.070Z,87.82
2018-04-28T04:22:20.252Z,86.78
2018-04-28T04:23:20.372Z,87.25
2018-04-28T04:24:20.547Z,87.45
2018-04-28T04:25:20.690Z,87.25
2018-04-28T04:26:20.875Z,87.45
2018-04-28T04:27:20.999Z,87.73
2018-04-28T04:28:21.132Z,87.73
2018-04-28T04:29:21.333Z,88.58
2018-04-28T04:30:21.472Z,88.29
2018-04-28T04:31:21.630Z,88.10
2018-04-28T04:32:21.762Z,88.29
2018-04-28T04:33:21.974Z,88.39
2018-04-28T04:34:22.167Z,88.20
2018-04-28T04:35:22.360Z,87.82
2018-04-28T04:36:22.404Z,88.10
2018-04-28T04:37:22.626Z,87.82
2018-04-28T04:38:22.714Z,87.73
2018-04-28T04:39:22.912Z,86.78
2018-04-28T04:40:23.081Z,86.87
2018-04-28T04:41:23.252Z,87.16
2018-04-28T04:42:23.366Z,86.78
2018-04-28T04:43:23.601Z,86.78
2018-04-28T04:44:23.781Z,86.78
2018-04-28T04:45:23.945Z,86.97
2018-04-28T04:46:24.066Z,87.06
2018-04-28T04:47:24.204Z,86.59
2018-04-28T04:48:24.342Z,86.21
2018-04-28T04:49:24.461Z,85.93
2018-04-28T04:50:24.661Z,86.02
2018-04-28T04:51:24.842Z,86.59
2018-04-28T04:52:24.955Z,86.68
2018-04-28T04:53:25.223Z,86.87
2018-04-28T04:54:25.380Z,86.78
2018-04-28T04:55:25.568Z,86.97
2018-04-28T04:56:25.739Z,86.78
2018-04-28T04:57:25.880Z,86.68
2018-04-28T04:58:26.023Z,86.30
2018-04-28T04:59:26.234Z,86.02
2018-04-28T05:00:26.330Z,85.93
2018-04-28T05:01:26.502Z,85.93
2018-04-28T05:02:26.712Z,85.93
2018-04-28T05:03:26.848Z,86.11
2018-04-28T05:04:27.008Z,86.30
2018-04-28T05:05:27.181Z,86.30
2018-04-28T05:06:27.353Z,86.68
2018-04-28T05:07:27.825Z,86.78
2018-04-28T05:08:27.801Z,86.78
2018-04-28T05:09:27.875Z,86.49
2018-04-28T05:10:27.999Z,86.40
2018-04-28T05:11:28.193Z,86.49
2018-04-28T05:12:28.733Z,86.30
2018-04-28T05:13:28.510Z,86.87
2018-04-28T05:14:28.739Z,87.06
2018-04-28T05:15:32.271Z,86.59
2018-04-28T05:16:28.959Z,86.78
2018-04-28T05:17:29.201Z,86.91
2018-04-28T05:18:29.345Z,86.91
2018-04-28T05:19:29.444Z,87.68
2018-04-28T05:20:43.243Z,87.01
2018-04-28T05:21:32.168Z,87.49
2018-04-28T05:22:32.458Z,86.72
2018-04-28T05:25:13.241Z,86.82
2018-04-28T05:26:13.485Z,86.63
2018-04-28T05:29:57.519Z,86.82
2018-04-28T05:35:06.184Z,86.20
2018-04-28T05:35:57.268Z,86.96
2018-04-28T05:36:57.396Z,87.05
2018-04-28T05:38:00.569Z,86.96
2018-04-28T05:40:47.903Z,86.82
2018-04-28T05:41:46.029Z,86.72
2018-04-28T05:42:45.816Z,87.38
2018-04-28T05:43:44.844Z,87.01
2018-04-28T05:44:42.749Z,86.91
2018-04-28T05:45:42.907Z,87.10
2018-04-28T05:46:43.036Z,87.34
2018-04-28T05:47:43.187Z,86.57
2018-04-28T05:48:43.496Z,85.91
2018-04-28T05:49:43.425Z,86.00
2018-04-28T05:50:43.609Z,86.19
2018-04-28T05:51:43.738Z,86.29
2018-04-28T05:52:43.875Z,85.66
2018-04-28T05:53:44.106Z,85.76
2018-04-28T05:54:44.263Z,85.28
2018-04-28T05:55:44.491Z,84.56
2018-04-28T05:56:44.823Z,83.42
2018-04-28T05:57:44.971Z,82.86
2018-04-28T05:58:45.121Z,82.14
2018-04-28T05:59:45.169Z,80.99
2018-04-28T06:00:45.433Z,80.42
2018-04-28T06:01:45.615Z,78.85
2018-04-28T06:02:45.729Z,78.65
2018-04-28T06:03:45.942Z,77.32
2018-04-28T06:04:46.080Z,77.55
2018-04-28T06:05:46.436Z,77.07
2018-04-28T06:06:46.376Z,76.21
2018-04-28T06:07:46.601Z,75.45
2018-04-28T06:08:46.860Z,75.20
2018-04-28T06:09:46.981Z,75.01
2018-04-28T06:10:47.195Z,74.54
2018-04-28T06:11:47.407Z,73.77
2018-04-28T06:12:47.560Z,73.30
2018-04-28T06:13:47.795Z,73.05
2018-04-28T06:14:47.853Z,72.86
2018-04-28T06:15:48.098Z,72.76
2018-04-28T06:16:48.206Z,72.38
2018-04-28T06:17:48.376Z,72.09
2018-04-28T06:18:48.579Z,72.19
2018-04-28T06:19:48.675Z,71.91
2018-04-28T06:20:48.837Z,72.09
2018-04-28T06:21:49.009Z,71.84
2018-04-28T06:22:49.167Z,71.14
2018-04-28T06:23:49.359Z,70.42
2018-04-28T06:24:49.480Z,70.51
2018-04-28T06:25:49.647Z,70.22
2018-04-28T06:26:49.851Z,70.89
2018-04-28T06:27:50.038Z,71.27
2018-04-28T06:28:50.114Z,70.13
2018-04-28T06:29:50.380Z,69.46
2018-04-28T06:30:50.499Z,69.46
2018-04-28T06:31:50.815Z,69.21
2018-04-28T06:32:50.848Z,69.21
2018-04-28T06:33:51.085Z,69.49
2018-04-28T06:34:51.305Z,68.26
2018-04-28T06:35:51.755Z,67.87
2018-04-28T06:36:51.601Z,67.87
2018-04-28T06:37:51.791Z,68.82
2018-04-28T06:38:52.026Z,67.81
2018-04-28T06:39:52.159Z,67.81
2018-04-28T06:40:52.524Z,67.91
2018-04-28T06:41:52.477Z,67.71
2018-04-28T06:42:52.642Z,68.29
2018-04-28T06:43:52.984Z,69.09
2018-04-28T06:44:53.018Z,67.71
2018-04-28T06:45:53.339Z,67.81
2018-04-28T06:46:53.954Z,67.55
2018-04-28T06:47:53.729Z,66.76
2018-04-28T06:48:53.748Z,68.61
2018-04-28T06:49:53.855Z,69.27
2018-04-28T06:50:54.043Z,68.04
2018-04-28T06:51:54.153Z,66.60
2018-04-28T06:52:54.360Z,67.08
2018-04-28T06:53:54.477Z,66.60
2018-04-28T06:54:54.700Z,66.03
2018-04-28T06:55:54.848Z,65.64
2018-04-28T06:56:54.968Z,66.70
2018-04-28T06:57:55.090Z,65.55
2018-04-28T06:58:55.283Z,64.88
2018-04-28T06:59:55.905Z,67.08
2018-04-28T07:02:31.511Z,65.74
2018-04-28T07:03:41.095Z,64.50
2018-04-28T07:04:33.948Z,66.03
2018-04-28T07:05:40.322Z,64.88
2018-04-28T07:06:33.486Z,64.88
2018-04-28T07:07:33.455Z,65.93
2018-04-28T07:08:42.474Z,66.13
2018-04-28T07:09:35.646Z,64.50
2018-04-28T07:10:44.266Z,63.57
2018-04-28T07:11:35.142Z,65.39
2018-04-28T07:12:45.168Z,63.39
2018-04-28T07:13:33.690Z,63.67
2018-04-28T07:14:33.605Z,63.00
2018-04-28T07:15:35.622Z,63.00
2018-04-28T07:18:54.553Z,61.47
2018-04-28T07:19:55.010Z,59.84
2018-04-28T07:21:03.678Z,61.19
2018-04-28T07:21:56.258Z,60.23
2018-04-28T07:22:55.347Z,61.60
2018-04-28T07:23:55.114Z,60.93
2018-04-28T07:24:56.111Z,61.79
2018-04-28T07:25:57.048Z,60.45
2018-04-28T07:26:57.459Z,59.97
2018-04-28T07:27:57.450Z,58.34
2018-04-28T07:28:57.034Z,58.34
2018-04-28T07:30:07.590Z,59.78
2018-04-28T07:33:13.445Z,59.05
2018-04-28T07:34:02.951Z,58.56
2018-04-28T07:36:38.479Z,56.17
2018-04-28T07:37:39.640Z,57.61
2018-04-28T07:40:32.832Z,57.16
2018-04-28T07:41:35.458Z,56.01
2018-04-28T07:42:33.381Z,54.67
2018-04-28T07:43:37.546Z,53.71
2018-04-28T07:46:24.848Z,51.15
2018-04-28T07:48:15.846Z,51.37
2018-04-28T07:49:16.060Z,51.20
2018-04-28T07:50:16.279Z,49.31
2018-04-28T07:51:17.709Z,48.83
2018-04-28T07:52:16.965Z,45.50
2018-04-28T07:53:17.461Z,44.63
2018-04-28T07:56:17.850Z,43.14
2018-04-28T07:57:17.793Z,44.00
2018-04-28T07:58:16.366Z,44.41
2018-04-28T07:59:15.515Z,41.53
2018-04-28T08:00:15.809Z,39.11
2018-04-28T08:01:15.942Z,39.37
2018-04-28T08:02:26.749Z,40.12
2018-04-28T08:03:18.243Z,40.14
2018-04-28T08:04:27.196Z,39.49
2018-04-28T08:05:18.465Z,39.61
2018-04-28T08:07:18.909Z,39.33
2018-04-28T08:08:17.198Z,38.56
2018-04-28T08:09:17.088Z,38.78
2018-04-28T08:10:17.135Z,38.47
2018-04-28T08:11:17.359Z,37.14
2018-04-28T08:12:17.554Z,36.37
2018-04-28T08:13:17.706Z,35.50
2018-04-28T08:14:17.779Z,33.95
2018-04-28T08:15:18.022Z,34.72
2018-04-28T08:16:18.195Z,34.91
2018-04-28T08:17:18.433Z,35.10
2018-04-28T08:18:18.689Z,36.45
2018-04-28T08:19:18.787Z,36.47
2018-04-28T08:20:20.625Z,34.06
2018-04-28T08:21:19.155Z,34.84
2018-04-28T08:22:19.469Z,34.25
2018-04-28T08:26:06.991Z,35.12
2018-04-28T08:31:22.799Z,34.37
2018-04-28T08:32:23.155Z,35.27
2018-04-28T08:33:23.707Z,34.40
2018-04-28T08:34:22.068Z,32.76
2018-04-28T08:35:21.588Z,33.44
2018-04-28T08:36:21.613Z,32.28
2018-04-28T08:37:22.214Z,32.87
2018-04-28T08:38:22.098Z,32.10
2018-04-28T08:39:22.459Z,31.43
2018-04-28T08:40:22.457Z,31.45
2018-04-28T08:41:23.137Z,31.83
2018-04-28T08:42:22.708Z,32.03
2018-04-28T08:43:22.875Z,32.33
2018-04-28T08:44:23.211Z,33.28
2018-04-28T08:45:23.242Z,31.25
2018-04-28T08:46:23.867Z,30.87
2018-04-28T08:47:23.724Z,31.04
2018-04-28T08:48:23.820Z,32.03
2018-04-28T08:49:24.002Z,29.69
2018-04-28T08:50:24.062Z,31.52
2018-04-28T08:51:24.391Z,32.59
2018-04-28T08:52:24.499Z,31.12
2018-04-28T08:53:24.710Z,30.85
2018-04-28T08:54:24.815Z,31.93
2018-04-28T08:55:25.152Z,31.25
2018-04-28T08:56:25.259Z,31.72
2018-04-28T08:57:25.435Z,30.85
2018-04-28T08:58:25.551Z,30.37
2018-04-28T08:59:25.807Z,29.89
2018-04-28T09:00:25.899Z,31.60
2018-04-28T09:01:26.144Z,32.09
2018-04-28T09:02:26.231Z,33.05
2018-04-28T09:03:26.386Z,33.34
2018-04-28T09:04:26.611Z,32.17
2018-04-28T09:05:26.814Z,33.61
2018-04-28T09:06:26.827Z,32.75
2018-04-28T09:07:27.038Z,33.00
2018-04-28T09:08:27.163Z,34.35
2018-04-28T09:09:27.465Z,32.14
2018-04-28T09:10:27.553Z,33.21
2018-04-28T09:11:27.630Z,33.81
2018-04-28T09:12:27.884Z,35.42
2018-04-28T09:13:28.091Z,36.39
2018-04-28T09:14:28.813Z,35.41
2018-04-28T09:15:38.165Z,34.43
2018-04-28T09:16:30.773Z,33.08
2018-04-28T09:17:31.325Z,34.62
2018-04-28T09:18:30.806Z,34.33
2018-04-28T09:19:30.910Z,34.53
2018-04-28T09:20:32.498Z,34.06
2018-04-28T09:21:29.439Z,33.56
2018-04-28T09:22:29.577Z,34.64
2018-04-28T09:23:29.811Z,33.21
2018-04-28T09:24:29.996Z,34.67
2018-04-28T09:25:30.028Z,33.21
2018-04-28T09:26:31.726Z,33.61
2018-04-28T09:27:30.451Z,33.02
2018-04-28T09:28:30.581Z,32.26
2018-04-28T09:29:30.742Z,33.42
2018-04-28T09:30:30.930Z,31.40
2018-04-28T09:31:31.041Z,31.41
2018-04-28T09:32:31.245Z,32.18
2018-04-28T09:33:32.046Z,32.47
2018-04-28T09:34:31.683Z,29.10
2018-04-28T09:35:31.798Z,28.92
2018-04-28T09:36:32.017Z,30.10
2018-04-28T09:37:32.173Z,29.03
2018-04-28T09:38:32.368Z,27.40
2018-04-28T09:39:32.528Z,28.66
2018-04-28T09:40:32.885Z,27.81
2018-04-28T09:41:32.780Z,27.12
2018-04-28T09:42:33.048Z,27.03
2018-04-28T09:43:34.472Z,28.98
2018-04-28T09:44:33.483Z,27.14
2018-04-28T09:45:33.786Z,27.04
2018-04-28T09:46:33.646Z,27.06
2018-04-28T09:47:34.406Z,28.89
2018-04-28T09:48:34.471Z,26.39
2018-04-28T09:49:34.274Z,25.51
2018-04-28T09:50:34.393Z,26.87
2018-04-28T09:51:36.707Z,26.97
2018-04-28T09:52:34.756Z,25.92
2018-04-28T09:53:34.925Z,25.82
2018-04-28T09:54:35.216Z,25.14
2018-04-28T09:55:35.318Z,26.99
2018-04-28T09:56:35.444Z,25.26
2018-04-28T09:57:35.633Z,24.78
2018-04-28T09:58:46.863Z,23.50
2018-04-28T09:59:38.378Z,24.18
2018-04-28T10:00:38.231Z,24.46
2018-04-28T10:01:39.260Z,24.74
2018-04-28T10:02:39.567Z,24.82
2018-04-28T10:03:36.734Z,27.06
2018-04-28T10:04:36.902Z,25.62
2018-04-28T10:05:37.101Z,24.67
2018-04-28T10:06:37.346Z,23.60
2018-04-28T10:07:37.441Z,24.68
2018-04-28T10:08:37.576Z,25.65
2018-04-28T10:09:37.811Z,25.74
2018-04-28T10:10:37.963Z,24.88
2018-04-28T10:11:41.843Z,22.74
2018-04-28T10:12:40.974Z,23.40
2018-04-28T10:13:41.067Z,24.17
2018-04-28T10:16:48.887Z,26.52
2018-04-28T10:17:42.013Z,24.10
2018-04-28T10:24:05.324Z,23.92
2018-04-28T10:27:07.757Z,22.66
2018-04-28T10:28:15.562Z,24.32
2018-04-28T10:30:18.033Z,23.47
2018-04-28T10:31:15.626Z,23.77
2018-04-28T10:32:19.694Z,21.03
2018-04-28T10:40:40.387Z,21.33
2018-04-28T11:03:29.173Z,21.44
2018-04-28T11:04:29.594Z,23.09
2018-04-28T11:05:29.694Z,21.36
2018-04-28T11:06:30.068Z,23.21
2018-04-28T11:08:31.370Z,22.75
2018-04-28T11:09:32.131Z,22.55
2018-04-28T11:10:31.007Z,21.50
2018-04-28T11:11:39.768Z,21.48
2018-04-28T11:12:32.583Z,22.36
2018-04-28T11:13:31.020Z,22.96
2018-04-28T11:14:31.750Z,19.15
2018-04-28T11:15:32.660Z,20.04
2018-04-28T11:16:30.223Z,21.11
2018-04-28T11:17:29.680Z,20.53
2018-04-28T11:18:30.047Z,18.58
2018-04-28T11:19:30.122Z,20.14
2018-04-28T11:20:30.132Z,20.63
2018-04-28T11:32:19.096Z,19.61
2018-04-28T11:41:53.159Z,20.03
2018-04-28T11:43:06.211Z,18.02
2018-04-28T11:45:36.653Z,17.08
2018-04-28T11:51:49.950Z,17.54
2018-04-28T11:52:37.673Z,16.28
2018-04-28T11:54:37.936Z,14.03
2018-04-28T11:55:35.362Z,14.42
2018-04-28T12:03:08.044Z,20.69
2018-04-28T12:04:50.315Z,18.46
2018-04-28T12:08:43.051Z,18.30
2018-04-28T12:09:50.295Z,17.92
2018-04-28T12:15:52.448Z,18.67
2018-04-28T12:17:32.975Z,18.01
2018-04-28T12:20:21.779Z,16.59
2018-04-28T12:21:48.594Z,15.52
2018-04-28T12:26:04.270Z,19.61
2018-04-28T12:27:13.339Z,20.37
2018-04-28T12:32:10.681Z,27.00
2018-04-28T12:33:00.729Z,27.01
2018-04-28T12:34:04.084Z,24.14
2018-04-28T12:37:32.755Z,20.55
2018-04-28T12:38:32.378Z,19.58
2018-04-28T12:42:13.003Z,22.19
2018-04-28T12:43:15.211Z,20.45
2018-04-28T12:44:14.162Z,19.48
2018-04-28T12:47:26.162Z,19.02
2018-04-28T12:48:18.845Z,18.54
2018-04-28T12:49:27.227Z,18.24
2018-04-28T12:51:44.343Z,20.21
2018-04-28T12:52:21.140Z,18.85
2018-04-28T12:58:32.607Z,17.60
2018-04-28T13:01:13.856Z,18.11
2018-04-28T13:07:40.374Z,22.14
2018-04-28T13:18:41.680Z,21.23
2018-04-28T13:23:48.082Z,24.73
2018-04-28T13:26:54.246Z,26.44
2018-04-28T13:27:49.839Z,26.54
2018-04-28T13:29:51.062Z,25.10
2018-04-28T13:32:52.534Z,28.77
2018-04-28T13:35:55.801Z,25.67
2018-04-28T13:36:39.572Z,25.57
2018-04-28T13:37:45.101Z,25.56
2018-04-28T13:39:38.583Z,26.34
2018-04-28T13:40:27.888Z,26.34
2018-04-28T13:41:31.448Z,27.02
2018-04-28T13:45:35.075Z,26.73
2018-04-28T13:48:53.148Z,25.78
2018-04-28T13:49:55.424Z,24.72
2018-04-28T13:53:10.854Z,25.46
2018-04-28T13:54:11.064Z,25.75
2018-04-28T13:57:15.905Z,27.27
2018-04-28T14:00:01.648Z,30.15
2018-04-28T14:04:33.685Z,30.22
2018-04-28T14:08:19.274Z,30.02
2018-04-28T14:09:10.487Z,30.11
2018-04-28T14:10:08.838Z,30.00
2018-04-28T14:11:11.641Z,30.31
2018-04-28T14:12:20.666Z,29.91
2018-04-28T14:13:08.962Z,29.91
2018-04-28T14:14:08.085Z,29.72
2018-04-28T14:17:11.208Z,30.97
2018-04-28T14:18:09.231Z,30.87
2018-04-28T14:19:10.728Z,30.49
2018-04-28T14:21:12.540Z,30.31
2018-04-28T14:22:11.527Z,30.02
2018-04-28T14:23:10.717Z,31.08
2018-04-28T14:24:10.792Z,30.40
2018-04-28T14:25:11.393Z,29.65
2018-04-28T14:26:10.385Z,29.18
2018-04-28T14:27:11.095Z,28.23
2018-04-28T14:28:11.516Z,27.39
2018-04-28T14:29:09.823Z,26.91
2018-04-28T14:30:09.610Z,25.86
2018-04-28T14:31:10.014Z,25.59
2018-04-28T14:32:09.954Z,24.27
2018-04-28T14:33:10.287Z,23.22
2018-04-28T14:34:10.117Z,22.66
2018-04-28T14:37:23.619Z,20.27
2018-04-28T14:38:24.123Z,21.04
2018-04-28T14:40:14.209Z,20.19
2018-04-28T14:41:25.094Z,19.50
2018-04-28T14:42:22.177Z,19.40
2018-04-28T14:43:16.209Z,19.70
2018-04-28T14:44:15.727Z,19.70
2018-04-28T14:53:17.348Z,22.80
2018-04-28T14:54:16.259Z,22.80
2018-04-28T14:58:13.351Z,21.13
2018-04-28T14:59:13.256Z,22.48
2018-04-28T15:00:13.797Z,23.92
2018-04-28T15:01:15.327Z,22.86
2018-04-28T15:03:13.517Z,23.82
2018-04-28T15:04:14.735Z,21.98
2018-04-28T15:05:12.723Z,23.71
2018-04-28T15:06:18.393Z,22.64
2018-04-28T15:07:14.633Z,22.13
2018-04-28T15:08:14.435Z,22.80
2018-04-28T15:09:13.333Z,24.23
2018-04-28T15:10:12.548Z,24.90
2018-04-28T15:11:13.219Z,23.63
2018-04-28T15:12:11.510Z,23.92
2018-04-28T15:13:11.673Z,24.01
2018-04-28T15:14:11.900Z,24.20
2018-04-28T15:15:12.207Z,24.28
2018-04-28T15:16:12.443Z,24.38
2018-04-28T15:17:12.667Z,24.57
2018-04-28T15:19:12.855Z,25.81
2018-04-28T15:20:13.170Z,25.60
2018-04-28T15:21:13.279Z,26.57
2018-04-28T15:22:13.529Z,28.29
2018-04-28T15:23:14.308Z,26.75
2018-04-28T15:24:14.237Z,26.94
2018-04-28T15:25:14.463Z,27.42
2018-04-28T15:26:14.604Z,27.91
2018-04-28T15:27:14.433Z,28.75
2018-04-28T15:28:15.795Z,27.31
2018-04-28T15:29:14.877Z,28.07
2018-04-28T15:30:15.943Z,27.97
2018-04-28T15:31:15.280Z,29.14
2018-04-28T15:32:15.115Z,30.19
2018-04-28T15:34:51.693Z,29.44
2018-04-28T15:35:53.436Z,28.95
2018-04-28T15:36:53.451Z,29.33
2018-04-28T15:37:52.472Z,28.96
2018-04-28T15:38:52.515Z,29.06
2018-04-28T15:40:53.420Z,29.15
2018-04-28T15:41:53.312Z,29.06
2018-04-28T15:42:55.555Z,29.24
2018-04-28T15:43:54.012Z,29.54
2018-04-28T15:44:52.899Z,29.44
2018-04-28T15:45:51.365Z,30.31
2018-04-28T15:46:51.594Z,29.83
2018-04-28T15:47:51.504Z,31.08
2018-04-28T15:48:51.940Z,29.44
2018-04-28T15:49:52.181Z,29.93
2018-04-28T15:50:52.364Z,29.93
2018-04-28T15:51:52.154Z,29.54
2018-04-28T15:52:52.525Z,29.54
2018-04-28T15:53:52.340Z,29.52
2018-04-28T15:54:52.932Z,29.24
2018-04-28T15:55:53.859Z,28.96
2018-04-28T15:56:53.983Z,29.91
2018-04-28T15:57:53.615Z,31.35
2018-04-28T15:58:53.854Z,31.75
2018-04-28T15:59:53.509Z,31.37
2018-04-28T16:00:53.664Z,32.90
2018-04-28T16:01:53.968Z,30.31
2018-04-28T16:02:54.092Z,30.10
2018-04-28T16:03:54.276Z,29.04
2018-04-28T16:04:54.587Z,29.33
2018-04-28T16:05:54.879Z,29.62
2018-04-28T16:06:54.760Z,29.24
2018-04-28T16:07:55.028Z,30.19
2018-04-28T16:08:55.126Z,29.62
2018-04-28T16:09:55.628Z,29.61
2018-04-28T16:10:55.619Z,30.38
2018-04-28T16:11:56.248Z,30.28
2018-04-28T16:12:56.299Z,30.47
2018-04-28T16:13:56.147Z,30.76
2018-04-28T16:14:56.441Z,30.38
2018-04-28T16:16:56.575Z,31.15
2018-04-28T16:17:56.924Z,31.34
2018-04-28T16:18:57.142Z,31.43
2018-04-28T16:19:57.751Z,31.90
2018-04-28T16:20:57.619Z,32.09
2018-04-28T16:21:58.042Z,31.90
2018-04-28T16:22:58.009Z,33.24
2018-04-28T16:23:58.252Z,34.01
2018-04-28T16:24:58.337Z,33.24
2018-04-28T16:25:58.341Z,33.15
2018-04-28T16:26:58.340Z,34.59
2018-04-28T16:27:58.609Z,35.93
2018-04-28T16:28:58.870Z,36.22
2018-04-28T16:29:59.167Z,35.16
2018-04-28T16:30:59.011Z,35.93
2018-04-28T16:31:59.272Z,34.39
2018-04-28T16:32:59.415Z,34.88
2018-04-28T16:33:59.519Z,33.34
2018-04-28T16:34:59.760Z,32.86
2018-04-28T16:36:00.204Z,34.28
2018-04-28T16:36:59.929Z,35.36
2018-04-28T16:38:00.138Z,32.93
2018-04-28T16:39:00.327Z,33.05
2018-04-28T16:40:00.829Z,33.23
2018-04-28T16:41:00.680Z,33.44
2018-04-28T16:42:01.029Z,35.14
2018-04-28T16:43:01.390Z,34.97
2018-04-28T16:44:01.842Z,36.13
2018-04-28T16:45:01.387Z,36.32
2018-04-28T16:46:01.720Z,37.18
2018-04-28T16:47:02.174Z,36.22
2018-04-28T16:48:01.996Z,34.68
2018-04-28T16:49:02.657Z,35.55
2018-04-28T16:50:02.614Z,35.36
2018-04-28T16:51:02.633Z,34.68
2018-04-28T16:52:02.816Z,34.59
2018-04-28T16:53:03.292Z,33.91
2018-04-28T16:54:03.248Z,34.28
2018-04-28T16:55:03.558Z,34.95
2018-04-28T16:56:03.728Z,34.86
2018-04-28T16:57:05.030Z,34.95
2018-04-28T16:58:04.012Z,34.47
2018-04-28T16:59:04.315Z,35.72
2018-04-28T17:00:04.307Z,35.43
2018-04-28T17:01:04.601Z,34.86
2018-04-28T17:02:04.956Z,35.24
2018-04-28T17:03:04.972Z,35.89
2018-04-28T17:04:05.219Z,35.72
2018-04-28T17:05:05.261Z,34.86
2018-04-28T17:06:05.668Z,34.84
2018-04-28T17:07:05.786Z,34.65
2018-04-28T17:08:06.119Z,33.80
2018-04-28T17:09:06.139Z,34.38
2018-04-28T17:10:06.185Z,34.75
2018-04-28T17:11:06.443Z,34.67
2018-04-28T17:12:07.105Z,34.75
2018-04-28T17:13:06.825Z,34.84
2018-04-28T17:14:07.012Z,35.14
2018-04-28T17:15:07.192Z,36.01
2018-04-28T17:16:07.361Z,36.11
2018-04-28T17:17:07.647Z,35.91
2018-04-28T17:18:07.842Z,36.01
2018-04-28T17:19:08.092Z,36.58
2018-04-28T17:20:08.213Z,35.82
2018-04-28T17:21:08.429Z,35.51
2018-04-28T17:22:08.624Z,35.32
2018-04-28T17:23:08.826Z,35.13
2018-04-28T17:24:08.998Z,35.51
2018-04-28T17:25:09.242Z,34.84
2018-04-28T17:26:10.139Z,35.03
2018-04-28T17:27:09.216Z,35.71
2018-04-28T17:28:10.017Z,36.09
2018-04-28T17:29:09.990Z,35.71
2018-04-28T17:30:09.788Z,35.61
2018-04-28T17:31:09.906Z,35.80
2018-04-28T17:32:10.089Z,36.28
2018-04-28T17:33:10.377Z,36.57
2018-04-28T17:34:10.768Z,36.66
2018-04-28T17:35:10.607Z,36.66
2018-04-28T17:36:11.207Z,36.57
2018-04-28T17:37:11.181Z,36.57
2018-04-28T17:38:11.732Z,36.86
2018-04-28T17:39:11.469Z,36.76
2018-04-28T17:40:12.177Z,37.24
2018-04-28T17:41:12.060Z,38.87
2018-04-28T17:42:11.861Z,40.99
2018-04-28T17:43:11.988Z,42.60
2018-04-28T17:44:12.124Z,42.69
2018-04-28T17:45:12.132Z,42.79
2018-04-28T17:46:12.578Z,43.74
2018-04-28T17:47:13.000Z,43.46
2018-04-28T17:48:13.029Z,42.50
2018-04-28T17:49:13.112Z,43.36
2018-04-28T17:50:12.978Z,43.17
2018-04-28T17:51:13.201Z,42.88
2018-04-28T17:52:13.381Z,43.27
2018-04-28T17:53:13.525Z,43.27
2018-04-28T17:54:13.656Z,43.36
2018-04-28T17:55:14.152Z,43.17
2018-04-28T17:56:14.464Z,43.46
2018-04-28T17:57:14.269Z,42.88
2018-04-28T17:58:14.507Z,42.60
2018-04-28T17:59:14.780Z,43.07
2018-04-28T18:00:14.727Z,43.94
2018-04-28T18:01:14.881Z,44.61
2018-04-28T18:02:15.031Z,44.68
2018-04-28T18:03:15.432Z,44.78
2018-04-28T18:04:15.488Z,45.47
2018-04-28T18:05:15.776Z,44.40
2018-04-28T18:06:15.810Z,45.36
2018-04-28T18:07:16.235Z,44.49
2018-04-28T18:08:16.272Z,45.45
2018-04-28T18:09:16.585Z,45.54
2018-04-28T18:10:16.934Z,46.86
2018-04-28T18:11:16.922Z,46.67
2018-04-28T18:12:17.068Z,46.58
2018-04-28T18:13:17.248Z,46.96
2018-04-28T18:14:17.673Z,47.06
2018-04-28T18:15:17.815Z,47.82
2018-04-28T18:16:17.833Z,47.92
2018-04-28T18:17:17.977Z,48.11
2018-04-28T18:18:18.315Z,47.99
2018-04-28T18:19:18.479Z,48.28
2018-04-28T18:20:19.732Z,47.89
2018-04-28T18:21:18.837Z,48.47
2018-04-28T18:22:18.884Z,47.51
2018-04-28T18:23:18.971Z,48.57
2018-04-28T18:24:19.083Z,48.47
2018-04-28T18:25:19.472Z,48.57
2018-04-28T18:26:19.730Z,48.57
2018-04-28T18:27:19.692Z,48.66
2018-04-28T18:28:19.804Z,48.28
2018-04-28T18:29:19.942Z,48.66
2018-04-28T18:30:20.270Z,49.31
2018-04-28T18:31:20.459Z,49.31
2018-04-28T18:32:20.698Z,49.11
2018-04-28T18:33:20.599Z,50.07
2018-04-28T18:34:20.869Z,49.40
2018-04-28T18:35:21.354Z,49.79
2018-04-28T18:36:21.231Z,49.88
2018-04-28T18:37:21.591Z,50.07
2018-04-28T18:38:21.699Z,50.36
2018-04-28T18:39:21.769Z,52.18
2018-04-28T18:40:22.059Z,53.42
2018-04-28T18:41:22.240Z,53.91
2018-04-28T18:42:22.477Z,54.07
2018-04-28T18:43:22.395Z,54.45
2018-04-28T18:44:22.866Z,54.36
2018-04-28T18:45:22.916Z,54.74
2018-04-28T18:46:23.236Z,54.16
2018-04-28T18:47:23.282Z,54.07
2018-04-28T18:48:23.448Z,54.07
2018-04-28T18:49:23.751Z,53.78
2018-04-28T18:50:23.968Z,53.88
2018-04-28T18:51:24.078Z,53.88
2018-04-28T18:52:24.197Z,53.88
2018-04-28T18:53:24.487Z,53.88
2018-04-28T18:54:24.777Z,54.64
2018-04-28T18:55:24.686Z,54.55
2018-04-28T18:56:25.006Z,55.02
2018-04-28T18:57:25.197Z,54.74
2018-04-28T18:58:25.367Z,55.12
2018-04-28T18:59:25.530Z,53.56
2018-04-28T19:00:25.657Z,53.37
2018-04-28T19:01:25.848Z,53.08
2018-04-28T19:02:26.517Z,53.66
2018-04-28T19:03:26.359Z,55.19
2018-04-28T19:04:26.461Z,56.91
2018-04-28T19:05:26.735Z,57.97
2018-04-28T19:06:27.066Z,57.77
2018-04-28T19:07:27.007Z,58.34
2018-04-28T19:08:27.043Z,58.34
2018-04-28T19:09:27.248Z,58.92
2018-04-28T19:10:27.416Z,58.54
2018-04-28T19:11:27.993Z,57.97
2018-04-28T19:12:27.975Z,58.06
2018-04-28T19:13:28.082Z,58.54
2018-04-28T19:14:28.340Z,58.73
2018-04-28T19:15:28.499Z,59.30
2018-04-28T19:16:28.570Z,59.88
2018-04-28T19:17:28.852Z,59.49
2018-04-28T19:18:29.040Z,59.30
2018-04-28T19:19:29.033Z,58.92
2018-04-28T19:20:29.291Z,57.93
2018-04-28T19:21:29.933Z,57.75
2018-04-28T19:22:29.558Z,58.89
2018-04-28T19:23:30.149Z,59.08